sensor_id;sensor_type;location;lat;lon;timestamp;temperature;humidity
26964;DHT22;14521;48.148;-1.656;2022-10-16T00:00:42;20.60;99.90
26964;DHT22;14521;48.148;-1.656;2022-10-16T00:04:05;20.60;99.90
26964;DHT22;14521;48.148;-1.656;2022-10-16T00:07:27;20.60;99.90
26964;DHT22;14521;48.148;-1.656;2022-10-16T00:10:49;20.60;99.90
26964;DHT22;14521;48.148;-1.656;2022-10-16T00:14:13;20.60;99.90
26964;DHT22;14521;48.148;-1.656;2022-10-16T00:17:36;20.60;99.90
26964;DHT22;14521;48.148;-1.656;2022-10-16T00:21:11;20.50;99.90
26964;DHT22;14521;48.148;-1.656;2022-10-16T00:24:33;20.50;99.90
26964;DHT22;14521;48.148;-1.656;2022-10-16T00:27:56;20.50;99.90
26964;DHT22;14521;48.148;-1.656;2022-10-16T00:31:20;20.50;99.90
26964;DHT22;14521;48.148;-1.656;2022-10-16T00:34:43;20.50;99.90
26964;DHT22;14521;48.148;-1.656;2022-10-16T00:38:05;20.50;99.90
26964;DHT22;14521;48.148;-1.656;2022-10-16T00:41:28;20.50;99.90
26964;DHT22;14521;48.148;-1.656;2022-10-16T00:44:56;20.50;99.90
26964;DHT22;14521;48.148;-1.656;2022-10-16T00:48:18;20.50;99.90
26964;DHT22;14521;48.148;-1.656;2022-10-16T00:51:52;20.50;99.90
26964;DHT22;14521;48.148;-1.656;2022-10-16T00:55:16;20.50;99.90
26964;DHT22;14521;48.148;-1.656;2022-10-16T00:58:39;20.50;99.90
26964;DHT22;14521;48.148;-1.656;2022-10-16T01:02:02;20.50;99.90
26964;DHT22;14521;48.148;-1.656;2022-10-16T01:05:39;20.50;99.90
26964;DHT22;14521;48.148;-1.656;2022-10-16T01:09:09;20.50;99.90
26964;DHT22;14521;48.148;-1.656;2022-10-16T01:16:44;20.50;99.90
26964;DHT22;14521;48.148;-1.656;2022-10-16T01:24:01;20.50;99.90
26964;DHT22;14521;48.148;-1.656;2022-10-16T01:27:28;20.50;99.90
26964;DHT22;14521;48.148;-1.656;2022-10-16T01:30:55;20.50;99.90
26964;DHT22;14521;48.148;-1.656;2022-10-16T01:34:25;20.40;99.90
26964;DHT22;14521;48.148;-1.656;2022-10-16T01:41:38;20.50;99.90
26964;DHT22;14521;48.148;-1.656;2022-10-16T01:45:05;20.50;99.90
26964;DHT22;14521;48.148;-1.656;2022-10-16T01:48:31;20.40;99.90
26964;DHT22;14521;48.148;-1.656;2022-10-16T01:51:56;20.40;99.90
26964;DHT22;14521;48.148;-1.656;2022-10-16T01:55:32;20.40;99.90
26964;DHT22;14521;48.148;-1.656;2022-10-16T01:59:04;20.40;99.90
26964;DHT22;14521;48.148;-1.656;2022-10-16T02:02:28;20.40;99.90
26964;DHT22;14521;48.148;-1.656;2022-10-16T02:05:56;20.40;99.90
26964;DHT22;14521;48.148;-1.656;2022-10-16T02:09:19;20.40;99.90
26964;DHT22;14521;48.148;-1.656;2022-10-16T02:12:45;20.40;99.90
26964;DHT22;14521;48.148;-1.656;2022-10-16T02:16:10;20.40;99.90
26964;DHT22;14521;48.148;-1.656;2022-10-16T02:19:33;20.40;99.90
26964;DHT22;14521;48.148;-1.656;2022-10-16T02:22:56;20.40;99.90
26964;DHT22;14521;48.148;-1.656;2022-10-16T02:26:29;20.40;99.90
26964;DHT22;14521;48.148;-1.656;2022-10-16T02:29:55;20.40;99.90
26964;DHT22;14521;48.148;-1.656;2022-10-16T02:33:21;20.40;99.90
26964;DHT22;14521;48.148;-1.656;2022-10-16T02:36:44;20.40;99.90
26964;DHT22;14521;48.148;-1.656;2022-10-16T02:40:09;20.40;99.90
26964;DHT22;14521;48.148;-1.656;2022-10-16T02:43:32;20.40;99.90
26964;DHT22;14521;48.148;-1.656;2022-10-16T02:46:55;20.40;99.90
26964;DHT22;14521;48.148;-1.656;2022-10-16T02:50:17;20.40;99.90
26964;DHT22;14521;48.148;-1.656;2022-10-16T02:53:40;20.40;99.90
26964;DHT22;14521;48.148;-1.656;2022-10-16T02:57:02;20.40;99.90
26964;DHT22;14521;48.148;-1.656;2022-10-16T03:00:24;20.40;99.90
26964;DHT22;14521;48.148;-1.656;2022-10-16T03:03:46;20.40;99.90
26964;DHT22;14521;48.148;-1.656;2022-10-16T03:07:08;20.40;99.90
26964;DHT22;14521;48.148;-1.656;2022-10-16T03:10:31;20.40;99.90
26964;DHT22;14521;48.148;-1.656;2022-10-16T03:13:53;20.40;99.90
26964;DHT22;14521;48.148;-1.656;2022-10-16T03:17:15;20.40;99.90
26964;DHT22;14521;48.148;-1.656;2022-10-16T03:20:38;20.40;99.90
26964;DHT22;14521;48.148;-1.656;2022-10-16T03:24:00;20.40;99.90
26964;DHT22;14521;48.148;-1.656;2022-10-16T03:27:23;20.40;99.90
26964;DHT22;14521;48.148;-1.656;2022-10-16T03:30:45;20.40;99.90
26964;DHT22;14521;48.148;-1.656;2022-10-16T03:34:08;20.40;99.90
26964;DHT22;14521;48.148;-1.656;2022-10-16T03:37:30;20.40;99.90
26964;DHT22;14521;48.148;-1.656;2022-10-16T03:40:52;20.40;99.90
26964;DHT22;14521;48.148;-1.656;2022-10-16T03:44:14;20.40;99.90
26964;DHT22;14521;48.148;-1.656;2022-10-16T03:47:36;20.40;99.90
26964;DHT22;14521;48.148;-1.656;2022-10-16T03:50:59;20.40;99.90
26964;DHT22;14521;48.148;-1.656;2022-10-16T03:54:21;20.40;99.90
26964;DHT22;14521;48.148;-1.656;2022-10-16T03:57:44;20.40;99.90
26964;DHT22;14521;48.148;-1.656;2022-10-16T04:01:06;20.40;99.90
26964;DHT22;14521;48.148;-1.656;2022-10-16T04:04:28;20.30;99.90
26964;DHT22;14521;48.148;-1.656;2022-10-16T04:07:50;20.30;99.90
26964;DHT22;14521;48.148;-1.656;2022-10-16T04:11:13;20.30;99.90
26964;DHT22;14521;48.148;-1.656;2022-10-16T04:14:35;20.40;99.90
26964;DHT22;14521;48.148;-1.656;2022-10-16T04:17:57;20.30;99.90
26964;DHT22;14521;48.148;-1.656;2022-10-16T04:21:19;20.40;99.90
26964;DHT22;14521;48.148;-1.656;2022-10-16T04:24:41;20.30;99.90
26964;DHT22;14521;48.148;-1.656;2022-10-16T04:28:03;20.40;99.90
26964;DHT22;14521;48.148;-1.656;2022-10-16T04:31:26;20.40;99.90
26964;DHT22;14521;48.148;-1.656;2022-10-16T04:34:48;20.30;99.90
26964;DHT22;14521;48.148;-1.656;2022-10-16T04:38:10;20.40;99.90
26964;DHT22;14521;48.148;-1.656;2022-10-16T04:41:32;20.30;99.90
26964;DHT22;14521;48.148;-1.656;2022-10-16T04:44:54;20.30;99.90
26964;DHT22;14521;48.148;-1.656;2022-10-16T04:48:17;20.30;99.90
26964;DHT22;14521;48.148;-1.656;2022-10-16T04:51:40;20.30;99.90
26964;DHT22;14521;48.148;-1.656;2022-10-16T04:55:02;20.30;99.90
26964;DHT22;14521;48.148;-1.656;2022-10-16T04:58:25;20.30;99.90
26964;DHT22;14521;48.148;-1.656;2022-10-16T05:01:47;20.30;99.90
26964;DHT22;14521;48.148;-1.656;2022-10-16T05:05:09;20.30;99.90
26964;DHT22;14521;48.148;-1.656;2022-10-16T05:08:31;20.30;99.90
26964;DHT22;14521;48.148;-1.656;2022-10-16T05:11:53;20.30;99.90
26964;DHT22;14521;48.148;-1.656;2022-10-16T05:15:16;20.30;99.90
26964;DHT22;14521;48.148;-1.656;2022-10-16T05:18:38;20.30;99.90
26964;DHT22;14521;48.148;-1.656;2022-10-16T05:22:00;20.40;99.90
26964;DHT22;14521;48.148;-1.656;2022-10-16T05:25:22;20.30;99.90
26964;DHT22;14521;48.148;-1.656;2022-10-16T05:28:45;20.30;99.90
26964;DHT22;14521;48.148;-1.656;2022-10-16T05:32:07;20.40;99.90
26964;DHT22;14521;48.148;-1.656;2022-10-16T05:35:30;20.30;99.90
26964;DHT22;14521;48.148;-1.656;2022-10-16T05:38:52;20.40;99.90
26964;DHT22;14521;48.148;-1.656;2022-10-16T05:42:14;20.30;99.90
26964;DHT22;14521;48.148;-1.656;2022-10-16T05:45:36;20.30;99.90
26964;DHT22;14521;48.148;-1.656;2022-10-16T05:48:59;20.30;99.90
26964;DHT22;14521;48.148;-1.656;2022-10-16T05:52:21;20.30;99.90
26964;DHT22;14521;48.148;-1.656;2022-10-16T05:55:43;20.40;99.90
26964;DHT22;14521;48.148;-1.656;2022-10-16T05:59:13;20.30;99.90
26964;DHT22;14521;48.148;-1.656;2022-10-16T06:02:35;20.30;99.90
26964;DHT22;14521;48.148;-1.656;2022-10-16T06:05:57;20.30;99.90
26964;DHT22;14521;48.148;-1.656;2022-10-16T06:09:19;20.30;99.90
26964;DHT22;14521;48.148;-1.656;2022-10-16T06:12:41;20.30;99.90
26964;DHT22;14521;48.148;-1.656;2022-10-16T06:16:04;20.30;99.90
26964;DHT22;14521;48.148;-1.656;2022-10-16T06:19:26;20.40;99.90
26964;DHT22;14521;48.148;-1.656;2022-10-16T06:22:48;20.40;99.90
26964;DHT22;14521;48.148;-1.656;2022-10-16T06:26:13;20.40;99.90
26964;DHT22;14521;48.148;-1.656;2022-10-16T06:29:35;20.40;99.90
26964;DHT22;14521;48.148;-1.656;2022-10-16T06:32:57;20.40;99.90
26964;DHT22;14521;48.148;-1.656;2022-10-16T06:36:20;20.50;99.90
26964;DHT22;14521;48.148;-1.656;2022-10-16T06:39:42;20.50;99.90
26964;DHT22;14521;48.148;-1.656;2022-10-16T06:43:04;20.50;99.90
26964;DHT22;14521;48.148;-1.656;2022-10-16T06:46:27;20.60;99.90
26964;DHT22;14521;48.148;-1.656;2022-10-16T06:49:49;20.50;99.90
26964;DHT22;14521;48.148;-1.656;2022-10-16T06:53:15;20.60;99.90
26964;DHT22;14521;48.148;-1.656;2022-10-16T06:56:37;20.60;99.90
26964;DHT22;14521;48.148;-1.656;2022-10-16T07:00:00;20.60;99.90
26964;DHT22;14521;48.148;-1.656;2022-10-16T07:03:22;20.60;99.90
26964;DHT22;14521;48.148;-1.656;2022-10-16T07:06:44;20.60;99.90
26964;DHT22;14521;48.148;-1.656;2022-10-16T07:10:07;20.60;99.90
26964;DHT22;14521;48.148;-1.656;2022-10-16T07:13:29;20.60;99.90
26964;DHT22;14521;48.148;-1.656;2022-10-16T07:16:51;20.60;99.90
26964;DHT22;14521;48.148;-1.656;2022-10-16T07:20:14;20.60;99.90
26964;DHT22;14521;48.148;-1.656;2022-10-16T07:23:36;20.60;99.90
26964;DHT22;14521;48.148;-1.656;2022-10-16T07:26:58;20.60;99.90
26964;DHT22;14521;48.148;-1.656;2022-10-16T07:30:21;20.60;99.90
26964;DHT22;14521;48.148;-1.656;2022-10-16T07:33:44;20.60;99.90
26964;DHT22;14521;48.148;-1.656;2022-10-16T07:37:07;20.60;99.90
26964;DHT22;14521;48.148;-1.656;2022-10-16T07:40:29;20.60;99.90
26964;DHT22;14521;48.148;-1.656;2022-10-16T07:43:52;20.60;99.90
26964;DHT22;14521;48.148;-1.656;2022-10-16T07:47:14;20.60;99.90
26964;DHT22;14521;48.148;-1.656;2022-10-16T07:50:37;20.60;99.90
26964;DHT22;14521;48.148;-1.656;2022-10-16T07:53:59;20.60;99.90
26964;DHT22;14521;48.148;-1.656;2022-10-16T07:57:22;20.60;99.90
26964;DHT22;14521;48.148;-1.656;2022-10-16T08:00:44;20.60;99.90
26964;DHT22;14521;48.148;-1.656;2022-10-16T08:04:06;20.60;99.90
26964;DHT22;14521;48.148;-1.656;2022-10-16T08:07:28;20.60;99.90
26964;DHT22;14521;48.148;-1.656;2022-10-16T08:10:50;20.70;99.90
26964;DHT22;14521;48.148;-1.656;2022-10-16T08:14:12;20.80;99.90
26964;DHT22;14521;48.148;-1.656;2022-10-16T08:17:35;20.90;99.90
26964;DHT22;14521;48.148;-1.656;2022-10-16T08:20:59;21.00;99.90
26964;DHT22;14521;48.148;-1.656;2022-10-16T08:24:22;21.10;99.90
26964;DHT22;14521;48.148;-1.656;2022-10-16T08:27:44;21.20;99.90
26964;DHT22;14521;48.148;-1.656;2022-10-16T08:31:09;21.20;99.90
26964;DHT22;14521;48.148;-1.656;2022-10-16T08:34:31;21.10;99.90
26964;DHT22;14521;48.148;-1.656;2022-10-16T08:37:53;21.00;99.90
26964;DHT22;14521;48.148;-1.656;2022-10-16T08:45:15;20.70;99.90
26964;DHT22;14521;48.148;-1.656;2022-10-16T08:48:54;20.70;99.90
26964;DHT22;14521;48.148;-1.656;2022-10-16T08:52:16;20.70;99.90
26964;DHT22;14521;48.148;-1.656;2022-10-16T08:55:46;20.50;99.90
26964;DHT22;14521;48.148;-1.656;2022-10-16T08:59:11;20.50;99.90
26964;DHT22;14521;48.148;-1.656;2022-10-16T09:02:40;20.50;99.90
26964;DHT22;14521;48.148;-1.656;2022-10-16T09:06:17;20.60;99.90
26964;DHT22;14521;48.148;-1.656;2022-10-16T09:09:58;20.50;99.90
26964;DHT22;14521;48.148;-1.656;2022-10-16T09:13:43;20.40;99.90
26964;DHT22;14521;48.148;-1.656;2022-10-16T09:17:37;20.30;99.90
26964;DHT22;14521;48.148;-1.656;2022-10-16T09:24:29;19.50;99.90
26964;DHT22;14521;48.148;-1.656;2022-10-16T09:27:53;19.20;99.90
26964;DHT22;14521;48.148;-1.656;2022-10-16T09:31:18;19.00;99.90
26964;DHT22;14521;48.148;-1.656;2022-10-16T09:34:42;19.30;99.90
26964;DHT22;14521;48.148;-1.656;2022-10-16T09:38:06;19.40;99.90
26964;DHT22;14521;48.148;-1.656;2022-10-16T09:41:29;19.60;99.90
26964;DHT22;14521;48.148;-1.656;2022-10-16T09:44:52;19.70;99.90
26964;DHT22;14521;48.148;-1.656;2022-10-16T09:48:19;19.60;99.90
26964;DHT22;14521;48.148;-1.656;2022-10-16T09:51:42;19.70;99.90
26964;DHT22;14521;48.148;-1.656;2022-10-16T09:55:16;19.70;99.90
26964;DHT22;14521;48.148;-1.656;2022-10-16T09:58:42;19.70;99.90
26964;DHT22;14521;48.148;-1.656;2022-10-16T10:02:11;19.70;99.90
26964;DHT22;14521;48.148;-1.656;2022-10-16T10:05:37;19.60;99.90
26964;DHT22;14521;48.148;-1.656;2022-10-16T10:09:13;19.70;99.90
26964;DHT22;14521;48.148;-1.656;2022-10-16T10:12:45;19.70;99.90
26964;DHT22;14521;48.148;-1.656;2022-10-16T10:16:07;19.70;99.90
26964;DHT22;14521;48.148;-1.656;2022-10-16T10:19:30;19.70;99.90
26964;DHT22;14521;48.148;-1.656;2022-10-16T10:22:59;19.70;99.90
26964;DHT22;14521;48.148;-1.656;2022-10-16T10:26:24;19.60;99.90
26964;DHT22;14521;48.148;-1.656;2022-10-16T10:33:58;19.50;99.90
26964;DHT22;14521;48.148;-1.656;2022-10-16T11:06:30;20.20;99.90
26964;DHT22;14521;48.148;-1.656;2022-10-16T11:10:03;20.20;99.90
26964;DHT22;14521;48.148;-1.656;2022-10-16T11:13:39;20.30;99.90
26964;DHT22;14521;48.148;-1.656;2022-10-16T11:17:17;20.30;99.90
26964;DHT22;14521;48.148;-1.656;2022-10-16T11:21:05;20.30;99.90
26964;DHT22;14521;48.148;-1.656;2022-10-16T11:24:54;20.40;99.90
26964;DHT22;14521;48.148;-1.656;2022-10-16T11:28:25;20.40;99.90
26964;DHT22;14521;48.148;-1.656;2022-10-16T11:32:14;20.40;99.90
26964;DHT22;14521;48.148;-1.656;2022-10-16T11:36:08;20.40;99.90
26964;DHT22;14521;48.148;-1.656;2022-10-16T11:39:33;20.40;99.90
26964;DHT22;14521;48.148;-1.656;2022-10-16T11:43:21;20.40;99.90
26964;DHT22;14521;48.148;-1.656;2022-10-16T11:47:01;20.50;99.90
26964;DHT22;14521;48.148;-1.656;2022-10-16T11:50:53;20.50;99.90
26964;DHT22;14521;48.148;-1.656;2022-10-16T11:54:30;20.50;99.90
26964;DHT22;14521;48.148;-1.656;2022-10-16T11:57:59;20.50;99.90
26964;DHT22;14521;48.148;-1.656;2022-10-16T12:05:25;20.50;99.90
26964;DHT22;14521;48.148;-1.656;2022-10-16T12:08:52;20.50;99.90
26964;DHT22;14521;48.148;-1.656;2022-10-16T12:19:36;20.50;99.90
26964;DHT22;14521;48.148;-1.656;2022-10-16T12:23:03;20.60;99.90
26964;DHT22;14521;48.148;-1.656;2022-10-16T12:26:34;20.60;99.90
26964;DHT22;14521;48.148;-1.656;2022-10-16T12:30:01;20.60;99.90
26964;DHT22;14521;48.148;-1.656;2022-10-16T12:36:48;20.60;99.90
26964;DHT22;14521;48.148;-1.656;2022-10-16T12:40:31;20.60;99.90
26964;DHT22;14521;48.148;-1.656;2022-10-16T12:43:54;20.60;99.90
26964;DHT22;14521;48.148;-1.656;2022-10-16T12:50:52;20.60;99.90
26964;DHT22;14521;48.148;-1.656;2022-10-16T12:54:21;20.60;99.90
26964;DHT22;14521;48.148;-1.656;2022-10-16T12:58:13;20.60;99.90
26964;DHT22;14521;48.148;-1.656;2022-10-16T13:05:43;20.60;99.90
26964;DHT22;14521;48.148;-1.656;2022-10-16T13:12:46;20.60;99.90
26964;DHT22;14521;48.148;-1.656;2022-10-16T13:24:01;20.60;99.90
26964;DHT22;14521;48.148;-1.656;2022-10-16T13:31:00;20.60;99.90
26964;DHT22;14521;48.148;-1.656;2022-10-16T13:34:24;20.60;99.90
26964;DHT22;14521;48.148;-1.656;2022-10-16T13:37:47;20.60;99.90
26964;DHT22;14521;48.148;-1.656;2022-10-16T13:41:17;20.60;99.90
26964;DHT22;14521;48.148;-1.656;2022-10-16T13:44:43;20.60;99.90
26964;DHT22;14521;48.148;-1.656;2022-10-16T13:48:09;20.60;99.90
26964;DHT22;14521;48.148;-1.656;2022-10-16T13:51:34;20.60;99.90
26964;DHT22;14521;48.148;-1.656;2022-10-16T13:54:56;20.60;99.90
26964;DHT22;14521;48.148;-1.656;2022-10-16T13:58:23;20.60;99.90
26964;DHT22;14521;48.148;-1.656;2022-10-16T14:01:45;20.60;99.90
26964;DHT22;14521;48.148;-1.656;2022-10-16T14:05:09;20.60;99.90
26964;DHT22;14521;48.148;-1.656;2022-10-16T14:08:32;20.60;99.90
26964;DHT22;14521;48.148;-1.656;2022-10-16T14:15:19;20.70;99.90
26964;DHT22;14521;48.148;-1.656;2022-10-16T14:18:46;20.70;99.90
26964;DHT22;14521;48.148;-1.656;2022-10-16T14:22:31;20.60;99.90
26964;DHT22;14521;48.148;-1.656;2022-10-16T14:25:54;20.70;99.90
26964;DHT22;14521;48.148;-1.656;2022-10-16T14:29:20;20.70;99.90
26964;DHT22;14521;48.148;-1.656;2022-10-16T14:32:53;20.70;99.90
26964;DHT22;14521;48.148;-1.656;2022-10-16T14:36:16;20.70;99.90
26964;DHT22;14521;48.148;-1.656;2022-10-16T14:39:40;20.70;99.90
26964;DHT22;14521;48.148;-1.656;2022-10-16T14:43:04;20.70;99.90
26964;DHT22;14521;48.148;-1.656;2022-10-16T14:46:35;20.70;99.90
26964;DHT22;14521;48.148;-1.656;2022-10-16T14:49:58;20.70;99.90
26964;DHT22;14521;48.148;-1.656;2022-10-16T14:53:21;20.60;99.90
26964;DHT22;14521;48.148;-1.656;2022-10-16T14:56:56;20.70;99.90
26964;DHT22;14521;48.148;-1.656;2022-10-16T15:00:22;20.70;99.90
26964;DHT22;14521;48.148;-1.656;2022-10-16T15:03:44;20.80;99.90
26964;DHT22;14521;48.148;-1.656;2022-10-16T15:07:08;20.70;99.90
26964;DHT22;14521;48.148;-1.656;2022-10-16T15:10:31;20.80;99.90
26964;DHT22;14521;48.148;-1.656;2022-10-16T15:13:54;20.80;99.90
26964;DHT22;14521;48.148;-1.656;2022-10-16T15:17:17;20.80;99.90
26964;DHT22;14521;48.148;-1.656;2022-10-16T15:20:43;20.80;99.90
26964;DHT22;14521;48.148;-1.656;2022-10-16T15:24:09;20.80;99.90
26964;DHT22;14521;48.148;-1.656;2022-10-16T15:27:38;20.80;99.90
26964;DHT22;14521;48.148;-1.656;2022-10-16T15:31:04;20.80;99.90
26964;DHT22;14521;48.148;-1.656;2022-10-16T15:34:27;20.80;99.90
26964;DHT22;14521;48.148;-1.656;2022-10-16T15:37:49;20.80;99.90
26964;DHT22;14521;48.148;-1.656;2022-10-16T15:41:11;20.70;99.90
26964;DHT22;14521;48.148;-1.656;2022-10-16T15:44:33;20.70;99.90
26964;DHT22;14521;48.148;-1.656;2022-10-16T15:47:56;20.70;99.90
26964;DHT22;14521;48.148;-1.656;2022-10-16T15:51:18;20.70;99.90
26964;DHT22;14521;48.148;-1.656;2022-10-16T15:54:40;20.70;99.90
26964;DHT22;14521;48.148;-1.656;2022-10-16T15:58:03;20.80;99.90
26964;DHT22;14521;48.148;-1.656;2022-10-16T16:01:26;20.80;99.90
26964;DHT22;14521;48.148;-1.656;2022-10-16T16:04:50;20.80;99.90
26964;DHT22;14521;48.148;-1.656;2022-10-16T16:08:12;20.80;99.90
26964;DHT22;14521;48.148;-1.656;2022-10-16T16:11:35;20.80;99.90
26964;DHT22;14521;48.148;-1.656;2022-10-16T16:15:00;20.80;99.90
26964;DHT22;14521;48.148;-1.656;2022-10-16T16:18:27;20.80;99.90
26964;DHT22;14521;48.148;-1.656;2022-10-16T16:21:50;20.90;99.90
26964;DHT22;14521;48.148;-1.656;2022-10-16T16:25:13;20.80;99.90
26964;DHT22;14521;48.148;-1.656;2022-10-16T16:28:35;20.80;99.90
26964;DHT22;14521;48.148;-1.656;2022-10-16T16:31:59;20.80;99.90
26964;DHT22;14521;48.148;-1.656;2022-10-16T16:35:21;20.80;99.90
26964;DHT22;14521;48.148;-1.656;2022-10-16T16:38:44;20.80;99.90
26964;DHT22;14521;48.148;-1.656;2022-10-16T16:42:07;20.80;99.90
26964;DHT22;14521;48.148;-1.656;2022-10-16T16:45:29;20.80;99.90
26964;DHT22;14521;48.148;-1.656;2022-10-16T16:48:51;20.80;99.90
26964;DHT22;14521;48.148;-1.656;2022-10-16T16:52:17;20.80;99.90
26964;DHT22;14521;48.148;-1.656;2022-10-16T16:55:39;20.80;99.90
26964;DHT22;14521;48.148;-1.656;2022-10-16T16:59:01;20.80;99.90
26964;DHT22;14521;48.148;-1.656;2022-10-16T17:02:24;20.90;99.90
26964;DHT22;14521;48.148;-1.656;2022-10-16T17:06:04;20.80;99.90
26964;DHT22;14521;48.148;-1.656;2022-10-16T17:09:27;20.80;99.90
26964;DHT22;14521;48.148;-1.656;2022-10-16T17:12:49;20.90;99.90
26964;DHT22;14521;48.148;-1.656;2022-10-16T17:16:12;20.90;99.90
26964;DHT22;14521;48.148;-1.656;2022-10-16T17:19:34;20.90;99.90
26964;DHT22;14521;48.148;-1.656;2022-10-16T17:22:56;20.90;99.90
26964;DHT22;14521;48.148;-1.656;2022-10-16T17:26:19;20.90;99.90
26964;DHT22;14521;48.148;-1.656;2022-10-16T17:29:41;20.90;99.90
26964;DHT22;14521;48.148;-1.656;2022-10-16T17:33:05;20.90;99.90
26964;DHT22;14521;48.148;-1.656;2022-10-16T17:36:27;20.90;99.90
26964;DHT22;14521;48.148;-1.656;2022-10-16T17:39:51;20.90;99.90
26964;DHT22;14521;48.148;-1.656;2022-10-16T17:43:14;20.90;99.90
26964;DHT22;14521;48.148;-1.656;2022-10-16T17:46:36;20.90;99.90
26964;DHT22;14521;48.148;-1.656;2022-10-16T17:50:05;20.90;99.90
26964;DHT22;14521;48.148;-1.656;2022-10-16T17:53:27;21.00;99.90
26964;DHT22;14521;48.148;-1.656;2022-10-16T17:56:49;21.00;99.90
26964;DHT22;14521;48.148;-1.656;2022-10-16T18:00:12;21.00;99.90
26964;DHT22;14521;48.148;-1.656;2022-10-16T18:03:34;21.00;99.90
26964;DHT22;14521;48.148;-1.656;2022-10-16T18:06:56;21.00;99.90
26964;DHT22;14521;48.148;-1.656;2022-10-16T18:10:18;21.00;99.90
26964;DHT22;14521;48.148;-1.656;2022-10-16T18:13:42;21.00;99.90
26964;DHT22;14521;48.148;-1.656;2022-10-16T18:17:04;21.00;99.90
26964;DHT22;14521;48.148;-1.656;2022-10-16T18:20:26;21.00;99.90
26964;DHT22;14521;48.148;-1.656;2022-10-16T18:23:48;21.00;99.90
26964;DHT22;14521;48.148;-1.656;2022-10-16T18:27:13;21.00;99.90
26964;DHT22;14521;48.148;-1.656;2022-10-16T18:30:35;21.00;99.90
26964;DHT22;14521;48.148;-1.656;2022-10-16T18:33:57;21.00;99.90
26964;DHT22;14521;48.148;-1.656;2022-10-16T18:37:20;21.10;99.90
26964;DHT22;14521;48.148;-1.656;2022-10-16T18:40:42;21.10;99.90
26964;DHT22;14521;48.148;-1.656;2022-10-16T18:44:06;21.10;99.90
26964;DHT22;14521;48.148;-1.656;2022-10-16T18:47:28;21.10;99.90
26964;DHT22;14521;48.148;-1.656;2022-10-16T18:50:51;21.10;99.90
26964;DHT22;14521;48.148;-1.656;2022-10-16T18:54:13;21.10;99.90
26964;DHT22;14521;48.148;-1.656;2022-10-16T18:57:35;21.10;99.90
26964;DHT22;14521;48.148;-1.656;2022-10-16T19:01:03;21.10;99.90
26964;DHT22;14521;48.148;-1.656;2022-10-16T19:04:25;21.10;99.90
26964;DHT22;14521;48.148;-1.656;2022-10-16T19:07:47;21.10;99.90
26964;DHT22;14521;48.148;-1.656;2022-10-16T19:11:15;21.10;99.90
26964;DHT22;14521;48.148;-1.656;2022-10-16T19:14:37;21.10;99.90
26964;DHT22;14521;48.148;-1.656;2022-10-16T19:17:59;21.10;99.90
26964;DHT22;14521;48.148;-1.656;2022-10-16T19:21:24;21.20;99.90
26964;DHT22;14521;48.148;-1.656;2022-10-16T19:24:46;21.10;99.90
26964;DHT22;14521;48.148;-1.656;2022-10-16T19:28:09;21.20;99.90
26964;DHT22;14521;48.148;-1.656;2022-10-16T19:31:31;21.20;99.90
26964;DHT22;14521;48.148;-1.656;2022-10-16T19:34:53;21.10;99.90
26964;DHT22;14521;48.148;-1.656;2022-10-16T19:38:17;21.00;99.90
26964;DHT22;14521;48.148;-1.656;2022-10-16T19:41:40;21.10;99.90
26964;DHT22;14521;48.148;-1.656;2022-10-16T19:45:02;21.00;99.90
26964;DHT22;14521;48.148;-1.656;2022-10-16T19:48:26;21.00;99.90
26964;DHT22;14521;48.148;-1.656;2022-10-16T19:51:49;20.90;99.90
26964;DHT22;14521;48.148;-1.656;2022-10-16T19:55:12;20.90;99.90
26964;DHT22;14521;48.148;-1.656;2022-10-16T19:58:34;20.90;99.90
26964;DHT22;14521;48.148;-1.656;2022-10-16T20:01:56;20.90;99.90
26964;DHT22;14521;48.148;-1.656;2022-10-16T20:05:19;20.90;99.90
26964;DHT22;14521;48.148;-1.656;2022-10-16T20:08:43;20.80;99.90
26964;DHT22;14521;48.148;-1.656;2022-10-16T20:12:06;20.80;99.90
26964;DHT22;14521;48.148;-1.656;2022-10-16T20:15:28;20.80;99.90
26964;DHT22;14521;48.148;-1.656;2022-10-16T20:18:51;20.80;99.90
26964;DHT22;14521;48.148;-1.656;2022-10-16T20:22:13;20.80;99.90
26964;DHT22;14521;48.148;-1.656;2022-10-16T20:25:37;20.80;99.90
26964;DHT22;14521;48.148;-1.656;2022-10-16T20:29:00;20.80;99.90
26964;DHT22;14521;48.148;-1.656;2022-10-16T20:32:23;20.80;99.90
26964;DHT22;14521;48.148;-1.656;2022-10-16T20:35:48;20.80;99.90
26964;DHT22;14521;48.148;-1.656;2022-10-16T20:39:10;20.80;99.90
26964;DHT22;14521;48.148;-1.656;2022-10-16T20:42:34;20.80;99.90
26964;DHT22;14521;48.148;-1.656;2022-10-16T20:46:04;20.80;99.90
26964;DHT22;14521;48.148;-1.656;2022-10-16T20:49:27;20.80;99.90
26964;DHT22;14521;48.148;-1.656;2022-10-16T20:53:02;20.80;99.90
26964;DHT22;14521;48.148;-1.656;2022-10-16T20:56:25;20.80;99.90
26964;DHT22;14521;48.148;-1.656;2022-10-16T20:59:48;20.70;99.90
26964;DHT22;14521;48.148;-1.656;2022-10-16T21:03:15;20.80;99.90
26964;DHT22;14521;48.148;-1.656;2022-10-16T21:06:38;20.70;99.90
26964;DHT22;14521;48.148;-1.656;2022-10-16T21:10:00;20.70;99.90
26964;DHT22;14521;48.148;-1.656;2022-10-16T21:13:23;20.70;99.90
26964;DHT22;14521;48.148;-1.656;2022-10-16T21:16:51;20.70;99.90
26964;DHT22;14521;48.148;-1.656;2022-10-16T21:20:13;20.70;99.90
26964;DHT22;14521;48.148;-1.656;2022-10-16T21:23:36;20.70;99.90
26964;DHT22;14521;48.148;-1.656;2022-10-16T21:26:58;20.70;99.90
26964;DHT22;14521;48.148;-1.656;2022-10-16T21:30:20;20.70;99.90
26964;DHT22;14521;48.148;-1.656;2022-10-16T21:33:42;20.70;99.90
26964;DHT22;14521;48.148;-1.656;2022-10-16T21:37:04;20.70;99.90
26964;DHT22;14521;48.148;-1.656;2022-10-16T21:40:28;20.70;99.90
26964;DHT22;14521;48.148;-1.656;2022-10-16T21:43:50;20.70;99.90
26964;DHT22;14521;48.148;-1.656;2022-10-16T21:47:13;20.70;99.90
26964;DHT22;14521;48.148;-1.656;2022-10-16T21:50:35;20.70;99.90
26964;DHT22;14521;48.148;-1.656;2022-10-16T21:53:57;20.70;99.90
26964;DHT22;14521;48.148;-1.656;2022-10-16T21:57:19;20.70;99.90
26964;DHT22;14521;48.148;-1.656;2022-10-16T22:00:41;20.70;99.90
26964;DHT22;14521;48.148;-1.656;2022-10-16T22:04:04;20.70;99.90
26964;DHT22;14521;48.148;-1.656;2022-10-16T22:07:26;20.70;99.90
26964;DHT22;14521;48.148;-1.656;2022-10-16T22:10:49;20.70;99.90
26964;DHT22;14521;48.148;-1.656;2022-10-16T22:14:16;20.70;99.90
26964;DHT22;14521;48.148;-1.656;2022-10-16T22:17:38;20.60;99.90
26964;DHT22;14521;48.148;-1.656;2022-10-16T22:21:01;20.70;99.90
26964;DHT22;14521;48.148;-1.656;2022-10-16T22:24:24;20.70;99.90
26964;DHT22;14521;48.148;-1.656;2022-10-16T22:27:46;20.60;99.90
26964;DHT22;14521;48.148;-1.656;2022-10-16T22:31:11;20.60;99.90
26964;DHT22;14521;48.148;-1.656;2022-10-16T22:34:33;20.70;99.90
26964;DHT22;14521;48.148;-1.656;2022-10-16T22:37:55;20.60;99.90
26964;DHT22;14521;48.148;-1.656;2022-10-16T22:41:18;20.70;99.90
26964;DHT22;14521;48.148;-1.656;2022-10-16T22:44:41;20.60;99.90